Time;durP1;ratioP1;P1;durP2;ratioP2;P2;SDS_P1;SDS_P2;PMS_P1;PMS_P2;Temp;Humidity;BMP_temperature;BMP_pressure;BME280_temperature;BME280_humidity;BME280_pressure;Samples;Min_cycle;Max_cycle;Signal;HPM_P1;HPM_P2
2023/08/12 00:01:49;;;;;;;;;4.25;4.00;;;;;22.31;78.04;101471.44;4998347;28;45244;-45
2023/08/12 00:04:16;;;;;;;;;5.00;5.00;;;;;22.25;78.16;101464.09;4998327;28;45387;-45
2023/08/12 00:06:42;;;;;;;;;4.80;4.80;;;;;22.27;78.14;101459.34;4998116;28;45415;-47
2023/08/12 00:09:11;;;;;;;;;5.75;5.00;;;;;22.30;78.67;101453.50;4997819;28;45420;-47
2023/08/12 00:11:37;;;;;;;;;6.80;5.00;;;;;22.28;78.88;101461.00;4998231;28;45372;-49
2023/08/12 00:14:03;;;;;;;;;6.25;6.00;;;;;22.27;79.00;101449.31;4998323;28;45749;-46
2023/08/12 00:16:29;;;;;;;;;6.50;5.00;;;;;22.27;79.55;101437.66;4997379;28;45262;-46
2023/08/12 00:18:54;;;;;;;;;8.25;8.00;;;;;22.26;79.25;101439.53;4997901;28;45274;-46
2023/08/12 00:21:20;;;;;;;;;7.25;5.00;;;;;22.23;78.84;101441.81;4997723;28;45255;-49
2023/08/12 00:23:47;;;;;;;;;6.00;6.00;;;;;22.22;79.73;101434.72;4998037;28;45722;-48
2023/08/12 00:26:13;;;;;;;;;7.50;6.00;;;;;22.26;79.54;101436.00;4997221;28;45398;-47
2023/08/12 00:28:38;;;;;;;;;7.00;7.00;;;;;22.18;80.05;101418.03;4997674;28;45396;-44
2023/08/12 00:31:04;;;;;;;;;6.75;5.25;;;;;22.26;79.13;101431.41;4997619;28;45308;-48
2023/08/12 00:33:29;;;;;;;;;6.00;6.00;;;;;22.28;79.48;101425.75;4997826;28;45355;-46
2023/08/12 00:35:54;;;;;;;;;5.25;3.50;;;;;22.30;79.42;101431.81;4997430;28;46450;-46
2023/08/12 00:38:20;;;;;;;;;9.00;6.50;;;;;22.20;79.65;101415.13;4997610;28;45353;-47
2023/08/12 00:40:45;;;;;;;;;6.25;5.75;;;;;22.30;79.74;101419.09;4997497;28;45443;-48
2023/08/12 00:43:11;;;;;;;;;6.50;6.50;;;;;22.21;79.81;101414.09;4997889;28;45293;-48
2023/08/12 00:45:37;;;;;;;;;6.75;6.75;;;;;22.21;79.81;101424.94;4997794;28;46417;-48
2023/08/12 00:48:04;;;;;;;;;6.20;5.80;;;;;22.22;80.03;101427.44;4997401;28;45354;-48
2023/08/12 00:50:30;;;;;;;;;9.60;7.40;;;;;22.22;80.02;101426.59;4997498;28;45322;-47
2023/08/12 00:52:57;;;;;;;;;8.75;7.00;;;;;22.18;80.90;101420.75;4997638;28;45322;-47
2023/08/12 00:55:22;;;;;;;;;9.75;6.25;;;;;22.15;80.28;101413.88;4997165;28;47244;-47
2023/08/12 00:57:48;;;;;;;;;5.00;4.00;;;;;22.14;80.67;101428.47;4997106;28;45462;-44
2023/08/12 01:00:15;;;;;;;;;6.00;6.00;;;;;22.16;80.69;101403.84;4996984;28;45395;-48
2023/08/12 01:02:45;;;;;;;;;5.75;4.00;;;;;22.21;80.96;101439.31;4995146;28;45483;-44
2023/08/12 01:05:11;;;;;;;;;8.00;7.50;;;;;22.22;81.62;101419.31;4997041;28;47103;-48
2023/08/12 01:07:36;;;;;;;;;7.00;6.00;;;;;22.23;81.92;101425.56;4997035;28;45392;-55
2023/08/12 01:10:02;;;;;;;;;5.50;5.50;;;;;22.13;82.13;101415.13;4997134;28;45317;-49
2023/08/12 01:12:36;;;;;;;;;6.00;5.75;;;;;22.18;82.10;101420.75;4997255;28;45181;-46
2023/08/12 01:15:08;;;;;;;;;9.75;6.50;;;;;22.16;81.93;101415.56;4996853;28;46287;-48
2023/08/12 01:17:37;;;;;;;;;8.20;7.00;;;;;22.18;82.38;101396.38;4996490;28;45421;-45
2023/08/12 01:20:08;;;;;;;;;6.20;4.60;;;;;22.23;81.89;101412.00;4996785;28;45333;-48
2023/08/12 01:22:39;;;;;;;;;5.60;5.60;;;;;22.22;82.78;101419.31;4997335;28;45314;-44
2023/08/12 01:25:05;;;;;;;;;6.60;5.80;;;;;22.23;83.31;101414.72;4996853;28;47074;-48
2023/08/12 01:27:30;;;;;;;;;7.00;6.60;;;;;22.19;83.84;101416.16;4996443;28;45412;-49
2023/08/12 01:29:56;;;;;;;;;6.50;5.50;;;;;22.20;83.70;101415.94;4996712;28;45478;-47
2023/08/12 01:32:59;;;;;;;;;4.75;4.00;;;;;22.25;83.81;101413.47;4996730;28;45558;-46
2023/08/12 01:35:35;;;;;;;;;6.00;4.40;;;;;22.12;82.68;101399.84;4996555;28;45811;-48
2023/08/12 01:38:03;;;;;;;;;5.60;4.20;;;;;22.19;82.18;101418.88;4996513;28;45410;-50
2023/08/12 01:40:31;;;;;;;;;8.20;6.80;;;;;22.12;84.43;101418.81;4996668;28;45365;-47
2023/08/12 01:42:56;;;;;;;;;5.00;4.25;;;;;22.10;84.59;101404.66;4996508;28;45605;-46
2023/08/12 01:45:22;;;;;;;;;5.25;5.00;;;;;22.16;85.59;101402.00;4996784;28;46167;-46
2023/08/12 01:47:50;;;;;;;;;6.00;3.80;;;;;22.09;84.35;101395.69;4996157;28;45430;-49
2023/08/12 01:50:16;;;;;;;;;4.60;3.40;;;;;22.21;84.82;101405.97;4996334;28;45523;-48
2023/08/12 01:52:41;;;;;;;;;3.00;3.00;;;;;22.17;84.39;101394.72;4996573;28;45390;-46
2023/08/12 01:55:07;;;;;;;;;2.50;2.25;;;;;22.19;83.21;101397.19;4996073;28;45971;-48
2023/08/12 01:57:32;;;;;;;;;4.00;4.00;;;;;22.18;84.75;101399.06;4994694;28;45368;-50
2023/08/12 01:59:58;;;;;;;;;3.00;3.00;;;;;22.15;84.90;101384.06;4996167;28;45347;-47
2023/08/12 02:02:23;;;;;;;;;2.50;2.50;;;;;22.11;83.24;101379.22;4996160;28;45223;-48
2023/08/12 02:04:48;;;;;;;;;4.00;2.00;;;;;22.17;83.95;101389.28;4996093;28;46271;-46
2023/08/12 02:07:14;;;;;;;;;2.25;2.00;;;;;22.06;85.06;101363.59;4995939;28;45549;-48
2023/08/12 02:09:39;;;;;;;;;2.00;2.00;;;;;22.09;85.18;101371.31;4996147;28;45331;-45
2023/08/12 02:12:05;;;;;;;;;2.25;2.25;;;;;22.09;85.22;101382.16;4995714;28;45300;-46
2023/08/12 02:14:30;;;;;;;;;4.75;3.25;;;;;22.03;85.51;101385.69;4995950;28;46215;-49
2023/08/12 02:16:56;;;;;;;;;2.25;2.00;;;;;22.07;85.60;101386.94;4995811;28;45179;-48
2023/08/12 02:19:21;;;;;;;;;1.00;1.00;;;;;22.05;85.74;101394.44;4996029;28;45554;-44
2023/08/12 02:21:47;;;;;;;;;2.25;2.25;;;;;21.92;86.28;101386.31;4996320;28;45238;-48
2023/08/12 02:24:12;;;;;;;;;2.75;2.25;;;;;21.97;87.24;101400.06;4995754;28;47002;-50
2023/08/12 02:26:38;;;;;;;;;5.00;2.00;;;;;21.96;87.47;101376.72;4995856;28;45334;-49
2023/08/12 02:29:04;;;;;;;;;5.75;3.00;;;;;21.92;87.71;101375.47;4996118;28;45464;-47
2023/08/12 02:31:29;;;;;;;;;2.75;2.00;;;;;21.94;87.30;101378.78;4996574;28;45519;-48
2023/08/12 02:33:54;;;;;;;;;3.00;1.50;;;;;21.90;87.26;101378.38;4995803;28;46138;-48
2023/08/12 02:36:20;;;;;;;;;3.25;3.00;;;;;21.92;86.41;101380.88;4994481;28;46272;-48
2023/08/12 02:38:45;;;;;;;;;3.00;2.00;;;;;21.88;87.98;101382.34;4995786;28;45357;-47
2023/08/12 02:41:11;;;;;;;;;2.00;2.00;;;;;21.88;88.33;101385.03;4995980;28;45352;-48
2023/08/12 02:43:36;;;;;;;;;3.00;3.00;;;;;21.80;88.13;101361.69;4995967;28;46220;-50
2023/08/12 02:46:01;;;;;;;;;4.00;3.75;;;;;21.83;88.25;101372.13;4995647;28;45393;-47
2023/08/12 02:48:27;;;;;;;;;4.00;2.25;;;;;21.83;89.48;101376.72;4995793;28;45486;-48
2023/08/12 02:50:52;;;;;;;;;4.25;2.00;;;;;21.83;88.89;101377.53;4995909;28;45384;-51
2023/08/12 02:53:17;;;;;;;;;3.25;2.00;;;;;21.79;88.54;101370.03;4995606;28;46486;-48
2023/08/12 02:55:44;;;;;;;;;1.75;1.75;;;;;21.77;88.09;101369.38;4995618;28;45408;-49
2023/08/12 02:58:10;;;;;;;;;1.00;1.00;;;;;21.76;88.86;101376.69;4995709;28;45513;-47
2023/08/12 03:00:35;;;;;;;;;2.00;2.00;;;;;21.73;88.90;101368.97;4995884;28;45401;-49
2023/08/12 03:03:00;;;;;;;;;2.50;1.00;;;;;21.73;89.97;101366.25;4995041;28;45504;-46
2023/08/12 03:05:26;;;;;;;;;1.00;1.00;;;;;21.76;88.96;101363.16;4995291;28;45880;-47
2023/08/12 03:07:52;;;;;;;;;1.00;1.00;;;;;21.73;88.88;101365.41;4995440;28;45809;-49
2023/08/12 03:10:17;;;;;;;;;1.00;1.00;;;;;21.71;89.58;101367.53;4995819;28;45478;-48
2023/08/12 03:12:42;;;;;;;;;1.50;1.00;;;;;21.64;89.14;101349.38;4995232;28;46661;-48
2023/08/12 03:15:08;;;;;;;;;2.00;1.00;;;;;21.74;89.82;101361.66;4995264;28;45435;-48
2023/08/12 03:17:34;;;;;;;;;2.00;1.75;;;;;21.75;89.26;101363.38;4995523;28;45496;-48
2023/08/12 03:19:59;;;;;;;;;2.00;2.00;;;;;21.74;88.76;101370.63;4995420;28;45531;-46
2023/08/12 03:22:26;;;;;;;;;2.00;1.00;;;;;21.74;89.20;101367.09;4996943;28;46922;-49
2023/08/12 03:24:52;;;;;;;;;3.20;2.60;;;;;21.65;86.66;101350.19;4998332;28;45401;-48
2023/08/12 03:27:17;;;;;;;;;3.00;2.00;;;;;21.70;89.84;101368.53;4999006;28;45415;-48
2023/08/12 03:29:42;;;;;;;;;2.00;2.00;;;;;21.54;89.38;101339.97;4998586;28;45429;-50
2023/08/12 03:32:08;;;;;;;;;3.00;1.25;;;;;21.63;89.36;101353.13;4998406;28;46099;-50
2023/08/12 03:34:33;;;;;;;;;3.50;2.75;;;;;21.57;89.85;101353.91;4998435;28;47486;-46
2023/08/12 03:36:58;;;;;;;;;0.75;0.50;;;;;21.60;89.34;101360.81;4998559;28;45300;-48
2023/08/12 03:39:24;;;;;;;;;2.25;2.00;;;;;21.51;90.29;101346.63;4998868;28;45277;-50
2023/08/12 03:41:50;;;;;;;;;1.75;1.75;;;;;21.56;90.69;101343.31;4998236;28;46031;-48
2023/08/12 03:44:15;;;;;;;;;0.80;0.80;;;;;21.59;90.54;101346.44;4998472;28;45256;-48
2023/08/12 03:46:41;;;;;;;;;1.00;1.00;;;;;21.53;90.93;101339.16;4998458;28;45249;-49
2023/08/12 03:49:06;;;;;;;;;2.00;2.00;;;;;21.59;91.13;101348.31;4998550;28;45361;-52
2023/08/12 03:51:31;;;;;;;;;1.75;1.00;;;;;21.55;90.32;101344.34;4998236;28;46326;-49
2023/08/12 03:53:57;;;;;;;;;2.00;2.00;;;;;21.51;91.12;101338.50;4998066;28;45274;-47
2023/08/12 03:56:23;;;;;;;;;0.40;0.40;;;;;21.50;91.15;101339.56;4998511;28;45327;-48
2023/08/12 03:58:48;;;;;;;;;1.25;1.25;;;;;21.51;92.21;101338.50;4998301;28;45578;-49
2023/08/12 04:01:13;;;;;;;;;2.50;1.25;;;;;21.51;92.37;101337.69;4997857;28;46106;-48
2023/08/12 04:03:39;;;;;;;;;3.00;2.00;;;;;21.49;92.04;101318.09;4997970;28;45329;-49
2023/08/12 04:06:04;;;;;;;;;1.00;1.00;;;;;21.56;91.12;101332.47;4998360;28;45461;-47
2023/08/12 04:08:30;;;;;;;;;1.50;1.50;;;;;21.56;91.30;101337.88;4998278;28;45662;-47
2023/08/12 04:10:55;;;;;;;;;1.75;1.75;;;;;21.51;91.89;101322.25;4997681;28;46597;-48
2023/08/12 04:13:20;;;;;;;;;1.00;1.00;;;;;21.58;92.29;101328.53;4997972;28;45393;-46
2023/08/12 04:15:55;;;;;;;;;1.50;1.50;;;;;21.63;90.60;101330.63;4997976;28;45599;-47
2023/08/12 04:18:20;;;;;;;;;1.00;0.00;;;;;21.62;90.86;101318.13;4997915;28;45432;-47
2023/08/12 04:20:47;;;;;;;;;1.50;1.50;;;;;21.62;91.92;101316.25;4998327;28;46235;-47
2023/08/12 04:23:13;;;;;;;;;2.20;2.00;;;;;21.65;91.61;101312.28;4997798;28;45412;-47
2023/08/12 04:25:38;;;;;;;;;3.60;2.20;;;;;21.66;91.68;101303.16;4997736;28;45334;-47
2023/08/12 04:28:04;;;;;;;;;1.00;1.00;;;;;21.62;91.69;101305.44;4998184;28;45360;-46
2023/08/12 04:30:29;;;;;;;;;4.00;2.00;;;;;21.71;91.53;101295.22;4997482;28;45362;-46
2023/08/12 04:32:54;;;;;;;;;3.00;1.25;;;;;21.74;91.82;101302.91;4997494;28;45345;-46
2023/08/12 04:35:20;;;;;;;;;3.00;3.00;;;;;21.74;91.08;101307.50;4997284;28;45291;-45
2023/08/12 04:37:45;;;;;;;;;3.50;1.75;;;;;21.76;91.53;101298.16;4997822;28;45178;-48
2023/08/12 04:40:11;;;;;;;;;3.00;3.00;;;;;21.76;90.45;101300.03;4995977;28;45416;-50
2023/08/12 04:42:36;;;;;;;;;3.25;3.00;;;;;21.74;91.12;101293.97;4997420;28;45479;-48
2023/08/12 04:45:03;;;;;;;;;2.50;2.00;;;;;21.74;91.38;101313.75;4997635;28;45420;-46
2023/08/12 04:47:28;;;;;;;;;1.80;1.00;;;;;21.93;91.27;101304.81;4997969;28;45345;-48
2023/08/12 04:49:54;;;;;;;;;4.00;2.00;;;;;22.10;88.84;101305.25;4997210;28;46056;-48
2023/08/12 04:52:20;;;;;;;;;1.50;1.50;;;;;22.02;89.19;101302.75;4997538;28;45405;-46
2023/08/12 04:54:46;;;;;;;;;3.00;1.80;;;;;21.95;88.60;101318.16;4997336;28;45464;-47
2023/08/12 04:57:11;;;;;;;;;1.50;1.50;;;;;21.92;88.64;101311.28;4997897;28;45538;-49
2023/08/12 04:59:37;;;;;;;;;2.00;2.00;;;;;21.87;89.43;101302.13;4997449;28;46299;-47
2023/08/12 05:02:02;;;;;;;;;2.00;2.00;;;;;21.86;89.78;101317.53;4997030;28;45427;-44
2023/08/12 05:04:27;;;;;;;;;1.00;1.00;;;;;21.81;89.40;101305.66;4997371;28;45414;-44
2023/08/12 05:06:53;;;;;;;;;2.75;1.25;;;;;21.80;90.12;101306.69;4997398;28;45416;-46
2023/08/12 05:09:18;;;;;;;;;2.00;1.00;;;;;21.79;89.50;101311.28;4996835;28;45795;-44
2023/08/12 05:11:43;;;;;;;;;1.00;1.00;;;;;21.77;89.08;101305.22;4997046;28;45310;-46
2023/08/12 05:14:09;;;;;;;;;2.00;1.25;;;;;21.72;89.83;101298.78;4997064;28;45218;-46
2023/08/12 05:16:34;;;;;;;;;2.75;2.75;;;;;21.77;89.82;101307.94;4997471;28;45435;-45
2023/08/12 05:18:59;;;;;;;;;3.50;2.00;;;;;21.76;89.55;101300.03;4996624;28;45385;-46
2023/08/12 05:21:25;;;;;;;;;1.75;1.75;;;;;21.80;89.97;101315.66;4996850;28;45211;-47
2023/08/12 05:23:50;;;;;;;;;3.75;2.00;;;;;21.82;88.41;101310.84;4996965;28;45291;-46
2023/08/12 05:26:15;;;;;;;;;1.50;1.50;;;;;21.81;89.33;101314.59;4997369;28;45507;-45
2023/08/12 05:28:41;;;;;;;;;0.25;0.25;;;;;21.82;90.40;101318.97;4996943;28;46267;-47
2023/08/12 05:31:07;;;;;;;;;2.00;2.00;;;;;21.76;90.09;101297.31;4997235;28;45170;-46
2023/08/12 05:33:33;;;;;;;;;2.00;1.80;;;;;21.91;89.40;101325.03;4996921;28;45387;-45
2023/08/12 05:35:58;;;;;;;;;3.00;1.00;;;;;21.90;89.56;101313.34;4997436;28;45556;-45
2023/08/12 05:38:24;;;;;;;;;1.00;1.00;;;;;21.90;89.06;101307.09;4996845;28;46224;-45
2023/08/12 05:40:49;;;;;;;;;2.00;1.25;;;;;21.93;89.11;101312.13;4996696;28;45397;-49
2023/08/12 05:43:14;;;;;;;;;1.00;1.00;;;;;21.93;89.16;101320.25;4997100;28;45455;-45
2023/08/12 05:45:40;;;;;;;;;1.00;1.00;;;;;21.90;89.70;101326.06;4996367;28;45390;-46
2023/08/12 05:48:05;;;;;;;;;3.00;1.00;;;;;21.91;89.16;101335.84;4997062;28;46272;-45
2023/08/12 05:50:30;;;;;;;;;1.50;1.25;;;;;21.92;89.59;101337.53;4996572;28;45459;-45
2023/08/12 05:52:56;;;;;;;;;1.00;1.00;;;;;21.93;89.63;101341.91;4996759;28;45339;-49
2023/08/12 05:55:21;;;;;;;;;2.00;0.25;;;;;21.91;89.46;101333.16;4996880;28;45448;-46
2023/08/12 05:57:46;;;;;;;;;1.00;1.00;;;;;21.85;88.87;101321.28;4996591;28;45368;-49
2023/08/12 06:00:12;;;;;;;;;1.00;1.00;;;;;21.92;89.06;101321.28;4996427;28;45411;-47
2023/08/12 06:02:38;;;;;;;;;1.00;1.00;;;;;21.93;88.75;101318.38;4996864;28;45427;-48
2023/08/12 06:05:04;;;;;;;;;0.60;0.60;;;;;21.93;88.62;101320.25;4997123;28;45416;-47
2023/08/12 06:07:29;;;;;;;;;2.75;1.25;;;;;21.96;88.53;101325.25;4996485;28;45959;-45
2023/08/12 06:09:54;;;;;;;;;1.00;1.00;;;;;21.98;88.39;101328.56;4996716;28;45428;-45
2023/08/12 06:12:20;;;;;;;;;0.75;0.75;;;;;21.95;88.29;101320.84;4996549;28;45234;-45
2023/08/12 06:14:45;;;;;;;;;1.00;1.00;;;;;21.97;86.66;101328.78;4996733;28;45268;-46
2023/08/12 06:17:10;;;;;;;;;1.00;1.00;;;;;21.97;88.55;101326.09;4996492;28;46040;-43
2023/08/12 06:19:36;;;;;;;;;0.75;0.75;;;;;21.98;88.52;101325.88;4996302;28;45342;-45
2023/08/12 06:22:03;;;;;;;;;2.00;2.00;;;;;21.99;89.04;101329.41;4996581;28;45400;-48
2023/08/12 06:24:28;;;;;;;;;1.20;1.20;;;;;22.00;88.15;101325.69;4996514;28;45270;-48
2023/08/12 06:26:53;;;;;;;;;2.00;2.00;;;;;22.00;86.54;101326.50;4996704;28;45308;-47
2023/08/12 06:29:18;;;;;;;;;1.00;1.00;;;;;21.98;86.30;101320.44;4996088;28;45452;-47
2023/08/12 06:31:44;;;;;;;;;2.50;0.25;;;;;21.98;85.74;101315.03;4996340;28;45398;-45
2023/08/12 06:34:09;;;;;;;;;0.00;0.00;;;;;22.01;86.50;101317.34;4996429;28;45405;-44
2023/08/12 06:36:34;;;;;;;;;0.00;0.00;;;;;22.00;86.27;101314.84;4996050;28;46211;-46
2023/08/12 06:39:00;;;;;;;;;0.75;0.75;;;;;22.03;85.82;101320.66;4996018;28;45388;-45
2023/08/12 06:41:25;;;;;;;;;0.00;0.00;;;;;22.03;85.54;101317.94;4995994;28;45395;-47
2023/08/12 06:43:50;;;;;;;;;1.00;1.00;;;;;21.98;85.21;101320.44;4996268;28;45402;-48
2023/08/12 06:46:16;;;;;;;;;0.00;0.00;;;;;22.02;85.23;101319.00;4995837;28;48042;-45
2023/08/12 06:48:41;;;;;;;;;0.00;0.00;;;;;22.10;85.43;101315.25;4995725;28;45405;-44
2023/08/12 06:51:12;;;;;;;;;0.75;0.00;;;;;22.17;84.80;101325.09;4996069;28;45356;-50
2023/08/12 06:53:39;;;;;;;;;2.80;0.60;;;;;22.23;84.67;101325.28;4996263;28;45349;-49
2023/08/12 06:56:05;;;;;;;;;0.00;0.00;;;;;22.25;84.22;101331.31;4995991;28;46199;-46
2023/08/12 06:58:31;;;;;;;;;0.00;0.00;;;;;22.17;84.09;101311.53;4999109;28;45417;-48
2023/08/12 07:00:56;;;;;;;;;0.00;0.00;;;;;22.22;83.51;101329.03;4998989;28;45353;-49
2023/08/12 07:03:22;;;;;;;;;0.00;0.00;;;;;22.23;83.51;101336.13;4999475;28;45297;-47
2023/08/12 07:05:48;;;;;;;;;1.00;1.00;;;;;22.25;83.98;101332.16;4999223;28;45484;-47
2023/08/12 07:08:13;;;;;;;;;0.00;0.00;;;;;22.21;83.93;101336.34;4998992;28;45583;-46
2023/08/12 07:10:39;;;;;;;;;2.00;1.00;;;;;22.24;83.92;101335.91;4999254;28;45308;-45
2023/08/12 07:13:05;;;;;;;;;0.00;0.00;;;;;22.22;83.86;101324.44;4999476;28;45349;-45
2023/08/12 07:15:30;;;;;;;;;0.00;0.00;;;;;22.26;84.14;101341.97;4998592;28;45367;-47
2023/08/12 07:17:57;;;;;;;;;0.00;0.00;;;;;22.27;84.12;101334.66;4999031;28;45475;-47
2023/08/12 07:20:24;;;;;;;;;1.00;1.00;;;;;22.24;84.01;101337.78;4998853;28;45291;-50
2023/08/12 07:22:49;;;;;;;;;0.80;0.80;;;;;22.21;83.44;101335.50;4999093;28;45390;-47
2023/08/12 07:25:14;;;;;;;;;0.25;0.25;;;;;22.22;84.15;101335.28;4998754;28;47155;-46
2023/08/12 07:27:39;;;;;;;;;0.00;0.00;;;;;22.23;83.72;101338.84;4998642;28;45466;-46
2023/08/12 07:30:05;;;;;;;;;2.00;0.00;;;;;22.28;83.70;101349.88;4998828;28;45316;-47
2023/08/12 07:32:31;;;;;;;;;0.00;0.00;;;;;22.29;84.21;101346.13;4997332;28;45414;-46
2023/08/12 07:34:56;;;;;;;;;0.00;0.00;;;;;22.19;83.10;101349.25;4998460;28;46179;-49
2023/08/12 07:37:22;;;;;;;;;0.00;0.00;;;;;22.19;83.92;101362.78;4998681;28;45409;-46
2023/08/12 07:39:47;;;;;;;;;0.00;0.00;;;;;22.13;84.40;101367.19;4998742;28;45424;-47
2023/08/12 07:42:12;;;;;;;;;0.25;0.25;;;;;22.07;84.06;101367.97;4998737;28;45359;-44
2023/08/12 07:44:37;;;;;;;;;0.00;0.00;;;;;22.02;83.97;101375.06;4998570;28;46084;-44
2023/08/12 07:47:03;;;;;;;;;0.75;0.00;;;;;21.95;82.94;101377.75;4998415;28;49520;-49
2023/08/12 07:49:28;;;;;;;;;1.00;1.00;;;;;21.88;82.84;101388.59;4998600;28;45290;-48
2023/08/12 07:51:54;;;;;;;;;2.00;1.00;;;;;21.85;82.19;101383.56;4998895;28;45427;-46
2023/08/12 07:54:19;;;;;;;;;1.00;0.00;;;;;21.83;82.40;101398.38;4998336;28;46923;-46
2023/08/12 07:56:44;;;;;;;;;1.00;1.00;;;;;21.81;82.09;101393.16;4998368;28;45373;-46
2023/08/12 07:59:10;;;;;;;;;1.25;1.00;;;;;21.74;81.80;101402.28;4998567;28;45372;-46
2023/08/12 08:01:35;;;;;;;;;3.25;1.00;;;;;21.73;81.81;101401.47;4998932;28;45377;-45
2023/08/12 08:04:01;;;;;;;;;1.00;1.00;;;;;21.73;81.60;101403.34;4997926;28;47300;-46
2023/08/12 08:06:28;;;;;;;;;1.00;1.00;;;;;21.70;82.06;101403.72;4998467;28;45333;-48
2023/08/12 08:08:54;;;;;;;;;1.00;1.00;;;;;21.71;81.75;101408.13;4997463;28;45368;-46
2023/08/12 08:11:19;;;;;;;;;2.75;1.00;;;;;21.72;81.20;101401.69;4998420;28;45426;-46
2023/08/12 08:13:44;;;;;;;;;1.00;1.00;;;;;21.78;81.66;101408.97;4996685;28;45561;-47
2023/08/12 08:16:09;;;;;;;;;2.00;1.00;;;;;21.74;81.75;101405.81;4997921;28;45396;-47
2023/08/12 08:18:35;;;;;;;;;1.50;1.50;;;;;21.74;81.36;101411.25;4998119;28;45433;-47
2023/08/12 08:21:00;;;;;;;;;1.00;1.00;;;;;21.77;81.69;101412.72;4998074;28;45751;-46
2023/08/12 08:23:25;;;;;;;;;2.00;1.50;;;;;21.80;81.53;101415.84;4996703;28;46254;-45
2023/08/12 08:25:51;;;;;;;;;3.50;3.00;;;;;21.80;80.98;101415.03;4998060;28;45410;-46
2023/08/12 08:28:17;;;;;;;;;2.75;1.00;;;;;21.84;81.72;101419.00;4998055;28;45369;-48
2023/08/12 08:30:43;;;;;;;;;3.75;2.00;;;;;21.85;81.80;101412.53;4997953;28;45517;-46
2023/08/12 08:33:08;;;;;;;;;1.00;1.00;;;;;21.89;80.10;101408.38;4998040;28;46096;-45
2023/08/12 08:35:33;;;;;;;;;1.50;1.50;;;;;22.05;79.60;101405.28;4997871;28;45433;-46
2023/08/12 08:37:59;;;;;;;;;3.25;2.00;;;;;22.25;79.03;101408.06;4997798;28;45373;-45
2023/08/12 08:40:26;;;;;;;;;2.00;1.00;;;;;22.39;78.30;101408.88;4998003;28;45334;-45
2023/08/12 08:42:55;;;;;;;;;1.00;1.00;;;;;22.52;77.69;101424.31;4997521;28;47381;-46
2023/08/12 08:45:23;;;;;;;;;1.20;1.20;;;;;22.56;77.30;101431.00;4997632;28;45368;-45
2023/08/12 08:47:51;;;;;;;;;3.20;2.00;;;;;22.58;76.92;101424.28;4997826;28;45350;-46
2023/08/12 08:50:17;;;;;;;;;2.00;1.00;;;;;22.67;76.17;101424.94;4997806;28;45369;-44
2023/08/12 08:52:43;;;;;;;;;1.00;1.00;;;;;22.79;75.45;101419.69;4997264;28;45463;-47
2023/08/12 08:55:09;;;;;;;;;1.25;1.00;;;;;23.05;74.79;101413.41;4997529;28;45397;-46
2023/08/12 08:57:37;;;;;;;;;3.00;1.00;;;;;23.38;73.13;101407.88;4997490;28;45372;-45
2023/08/12 09:00:03;;;;;;;;;1.80;1.80;;;;;24.37;70.85;101409.19;4997789;28;45417;-46
2023/08/12 09:02:29;;;;;;;;;2.00;2.00;;;;;24.81;69.14;101418.22;4997183;28;47371;-46
2023/08/12 09:04:55;;;;;;;;;1.40;1.00;;;;;28.29;60.08;101414.66;4997149;28;45318;-48
2023/08/12 09:07:21;;;;;;;;;1.00;1.00;;;;;29.51;55.08;101402.72;4997503;28;45385;-41
2023/08/12 09:09:50;;;;;;;;;0.75;0.75;;;;;29.24;55.37;101407.31;4997526;28;45334;-47
2023/08/12 09:12:16;;;;;;;;;3.20;3.00;;;;;29.48;54.18;101403.22;4996873;28;46358;-43
2023/08/12 09:14:43;;;;;;;;;2.40;2.00;;;;;30.01;54.11;101409.03;4997155;28;45532;-49
2023/08/12 09:17:09;;;;;;;;;2.00;1.80;;;;;29.69;53.26;101407.06;4997273;28;45406;-47
2023/08/12 09:19:34;;;;;;;;;3.00;1.40;;;;;29.54;53.03;101406.88;4997028;28;45469;-44
2023/08/12 09:22:02;;;;;;;;;2.75;1.50;;;;;29.44;53.10;101401.25;4996842;28;46495;-44
2023/08/12 09:24:29;;;;;;;;;4.00;1.00;;;;;29.63;53.68;101410.84;4996915;28;45379;-48
2023/08/12 09:26:57;;;;;;;;;0.60;0.60;;;;;30.50;53.21;101406.16;4997101;28;45390;-45
2023/08/12 09:29:24;;;;;;;;;1.20;1.20;;;;;31.02;50.28;101400.72;4997382;28;45373;-45
2023/08/12 09:31:50;;;;;;;;;1.00;1.00;;;;;31.36;49.47;101405.84;4996793;28;46176;-46
2023/08/12 09:34:17;;;;;;;;;1.00;1.00;;;;;31.37;49.67;101404.75;4997283;28;45330;-46
2023/08/12 09:36:43;;;;;;;;;1.00;1.00;;;;;31.41;48.29;101405.84;4996671;28;45217;-45
2023/08/12 09:39:08;;;;;;;;;2.50;0.75;;;;;31.65;48.77;101405.38;4997340;28;45317;-44
2023/08/12 09:41:34;;;;;;;;;1.25;1.25;;;;;32.29;47.70;101407.66;4996968;28;46499;-48
2023/08/12 09:44:01;;;;;;;;;2.25;1.00;;;;;33.94;42.65;101396.59;4997126;28;45959;-46
2023/08/12 09:46:27;;;;;;;;;1.00;1.00;;;;;35.72;39.00;101409.63;4997152;28;45396;-47
2023/08/12 09:48:53;;;;;;;;;2.00;2.00;;;;;37.14;36.92;101405.47;4997019;28;45297;-47
2023/08/12 09:51:22;;;;;;;;;2.00;0.00;;;;;37.38;38.30;101408.81;4996565;28;46364;-44
2023/08/12 09:53:49;;;;;;;;;1.40;1.40;;;;;36.08;38.35;101411.88;4996679;28;45304;-46
2023/08/12 09:56:18;;;;;;;;;0.00;0.00;;;;;34.71;42.98;101421.63;4996895;28;45368;-47
2023/08/12 09:58:49;;;;;;;;;1.60;1.20;;;;;33.46;42.36;101426.72;4996949;28;45333;-45
2023/08/12 10:01:18;;;;;;;;;3.20;0.80;;;;;32.39;43.62;101429.72;4996328;28;45490;-45
2023/08/12 10:03:48;;;;;;;;;0.60;0.60;;;;;31.36;46.03;101444.34;4996402;28;45872;-47
2023/08/12 10:06:15;;;;;;;;;1.00;1.00;;;;;30.46;48.24;101441.53;4996642;28;45465;-44
2023/08/12 10:08:41;;;;;;;;;0.60;0.60;;;;;29.66;48.91;101436.91;4996787;28;45467;-47
2023/08/12 10:11:07;;;;;;;;;1.40;0.00;;;;;29.00;49.89;101426.75;4996350;28;46313;-43
2023/08/12 10:13:34;;;;;;;;;0.00;0.00;;;;;28.35;51.37;101436.41;4996632;28;45468;-45
2023/08/12 10:16:00;;;;;;;;;0.20;0.20;;;;;27.80;52.48;101436.22;4996551;28;45373;-46
2023/08/12 10:18:30;;;;;;;;;3.00;1.00;;;;;29.36;51.50;101431.88;4996657;28;45413;-46
2023/08/12 10:20:59;;;;;;;;;0.00;0.00;;;;;33.42;44.09;101420.09;4996368;28;46289;-46
2023/08/12 10:23:25;;;;;;;;;1.20;0.00;;;;;36.74;38.78;101413.44;4994795;28;45581;-47
2023/08/12 10:25:54;;;;;;;;;1.80;0.20;;;;;39.43;34.15;101419.06;4996406;28;45341;-46
2023/08/12 10:28:20;;;;;;;;;0.00;0.00;;;;;41.51;32.24;101417.69;4996548;28;45446;-44
2023/08/12 10:30:46;;;;;;;;;0.80;0.40;;;;;43.59;27.08;101417.25;4996155;28;45515;-49
2023/08/12 10:33:16;;;;;;;;;0.20;0.00;;;;;45.33;27.90;101425.00;4995624;28;45461;-46
2023/08/12 10:35:49;;;;;;;;;1.00;0.00;;;;;46.60;25.17;101411.06;4996206;28;45238;-46
2023/08/12 10:38:20;;;;;;;;;1.20;1.20;;;;;47.72;28.08;101421.56;4996404;28;45279;-47
2023/08/12 10:40:47;;;;;;;;;1.80;0.80;;;;;48.57;25.41;101417.22;4995893;28;46977;-48
2023/08/12 10:43:13;;;;;;;;;0.00;0.00;;;;;49.43;22.23;101410.94;4996196;28;45434;-47
2023/08/12 10:45:52;;;;;;;;;2.20;0.40;;;;;50.21;22.41;101420.88;4996105;28;45333;-44
2023/08/12 10:48:24;;;;;;;;;1.00;0.00;;;;;50.83;21.46;101416.84;4995653;28;45427;-47
2023/08/12 10:50:55;;;;;;;;;0.00;0.00;;;;;51.09;21.20;101413.53;4996213;28;46476;-46
2023/08/12 10:53:29;;;;;;;;;0.00;0.00;;;;;50.55;23.11;101412.81;4994658;28;45449;-44
2023/08/12 10:55:56;;;;;;;;;1.20;0.20;;;;;51.25;21.38;101409.47;4996065;28;45496;-49
2023/08/12 10:58:30;;;;;;;;;0.00;0.00;;;;;51.23;17.87;101400.56;4996250;28;45321;-44
2023/08/12 11:00:57;;;;;;;;;0.00;0.00;;;;;51.80;18.83;101401.09;4995821;28;45450;-48
2023/08/12 11:03:23;;;;;;;;;0.50;0.50;;;;;52.27;18.20;101401.63;4995779;28;45762;-48
2023/08/12 11:05:48;;;;;;;;;0.20;0.20;;;;;52.23;18.72;101389.47;4996031;28;45516;-47
2023/08/12 11:08:14;;;;;;;;;0.00;0.00;;;;;50.96;17.88;101395.38;4996078;28;45424;-49
2023/08/12 11:10:40;;;;;;;;;0.00;0.00;;;;;49.25;21.55;101401.53;4995865;28;46590;-47
2023/08/12 11:13:06;;;;;;;;;1.00;0.75;;;;;47.05;22.55;101393.28;4995916;28;45371;-49
2023/08/12 11:15:39;;;;;;;;;0.00;0.00;;;;;46.22;22.75;101388.28;4995908;28;45250;-48
2023/08/12 11:18:05;;;;;;;;;1.60;1.00;;;;;44.32;24.44;101390.88;4996011;28;45178;-46
2023/08/12 11:20:30;;;;;;;;;0.00;0.00;;;;;43.37;25.52;101392.53;4995375;28;46182;-48